Columbia, Missouri
Current Conditions -  °F | °C
As of 11:54 PM on Thursday 18 Dec 2014 (Local Time) from KCOU Reporting Station
Haze Haze  
Wind Chill: 27°   Ceiling: 500
Heat Index: 32°   Visibility: 5mi
Dew Point: 30°   Wind: 5mph
Humidity: 92%   Direction: 90°E
Pressure: 30.27"   Gusts: NA
Location:  38.95°N, 92.33°W
Report Text: KCOU 190554Z AUTO 09004KT 5SM BR OVC005 00/M01 A3027 RMK AO2 SLP257 T00001011 10006 20000 400111022 50007
Loading
Personal Weather Stations






























Interactive Weather Map New forecast layout! Learn more

10-Day Weather Forecast

Advertisements
Track Severe Weather on mobile